Terminal Aerodrome Forecast
Issued by NWS

Home | Current Version | Previous Version | Text Only | Print | Product List | Glossary On
Versions: 1 2 3 4 5 6 7 8 9 10 11 12 13 14 15 16 17 18 19 20 21 22 23 24 25 26 27 28 29 30 31 32 33 34 35 36 37 38
000
FTUS43 KSGF 212320
TAFBBG
TAF
KBBG 212320Z 2200/2224 17008G18KT P6SM BKN045 BKN110
     FM221100 16008KT P6SM SCT060 BKN100 WS020/21035KT PROB30
      2211/2214 4SM -SHRA BR BKN060
     FM221400 19012KT P6SM VCSH SCT040 BKN090 PROB30 2214/2220 4SM
      -TSRA BR BKN040CB
     FM222000 21011G19KT 6SM -SHRA BR SCT045 BKN080 PROB30 2220/2224
      4SM -TSRA BR BKN045CB=

USA.gov is the U.S. government's official web portal to all federal, state and local government web resources and services.